createdAt,value
2023-01-21T00:01:50.645Z,-3.27
2023-01-21T00:04:17.152Z,-3.29
2023-01-21T00:06:43.814Z,-3.29
2023-01-21T00:09:10.657Z,-3.30
2023-01-21T00:11:37.273Z,-3.30
2023-01-21T00:14:03.652Z,-3.36
2023-01-21T00:16:30.032Z,-3.35
2023-01-21T00:18:56.927Z,-3.38
2023-01-21T00:21:23.320Z,-3.37
2023-01-21T00:23:49.919Z,-3.38
2023-01-21T00:26:16.301Z,-3.37
2023-01-21T00:28:43.723Z,-3.33
2023-01-21T00:31:10.752Z,-3.37
2023-01-21T00:33:37.251Z,-3.32
2023-01-21T00:36:08.414Z,-3.27
2023-01-21T00:38:34.912Z,-3.20
2023-01-21T00:41:01.278Z,-3.11
2023-01-21T00:43:27.684Z,-3.02
2023-01-21T00:45:54.089Z,-2.94
2023-01-21T00:48:20.555Z,-2.86
2023-01-21T00:50:46.981Z,-2.76
2023-01-21T00:53:13.379Z,-2.67
2023-01-21T00:55:39.805Z,-2.60
2023-01-21T00:58:06.442Z,-2.52
2023-01-21T01:00:32.992Z,-2.45
2023-01-21T01:02:59.699Z,-2.36
2023-01-21T01:05:26.173Z,-2.28
2023-01-21T01:07:52.539Z,-2.24
2023-01-21T01:10:19.131Z,-2.21
2023-01-21T01:12:45.470Z,-2.15
2023-01-21T01:15:11.939Z,-2.08
2023-01-21T01:17:38.538Z,-2.02
2023-01-21T01:20:05.463Z,-1.96
2023-01-21T01:22:32.057Z,-1.91
2023-01-21T01:24:58.403Z,-1.85
2023-01-21T01:27:24.757Z,-1.79
2023-01-21T01:29:51.187Z,-1.68
2023-01-21T01:32:17.535Z,-1.58
2023-01-21T01:34:44.937Z,-1.51
2023-01-21T01:37:11.308Z,-1.44
2023-01-21T01:39:37.704Z,-1.37
2023-01-21T01:42:04.173Z,-1.33
2023-01-21T01:45:00.673Z,-1.30
2023-01-21T01:47:37.156Z,-1.28
2023-01-21T01:50:04.609Z,-1.24
2023-01-21T01:52:30.951Z,-1.23
2023-01-21T01:54:58.089Z,-1.19
2023-01-21T01:57:27.843Z,-1.17
2023-01-21T01:59:54.416Z,-1.13
2023-01-21T02:02:20.865Z,-1.08
2023-01-21T02:04:52.251Z,-1.06
2023-01-21T02:07:19.193Z,-1.03
2023-01-21T02:09:45.564Z,-1.05
2023-01-21T02:12:11.938Z,-1.01
2023-01-21T02:14:42.878Z,-0.99
2023-01-21T02:17:15.391Z,-0.96
2023-01-21T02:20:09.770Z,-0.92
2023-01-21T02:23:10.903Z,-0.91
2023-01-21T02:26:04.870Z,-0.88
2023-01-21T02:28:36.798Z,-0.83
2023-01-21T02:31:24.570Z,-0.83
2023-01-21T02:34:06.069Z,-0.82
2023-01-21T02:36:44.063Z,-0.79
2023-01-21T02:39:29.168Z,-0.75
2023-01-21T02:42:28.920Z,-0.73
2023-01-21T02:45:13.948Z,-0.71
2023-01-21T02:47:55.651Z,-0.64
2023-01-21T02:50:26.803Z,-0.61
2023-01-21T02:53:00.212Z,-0.58
2023-01-21T02:55:31.708Z,-0.56
2023-01-21T02:58:01.049Z,-0.56
2023-01-21T03:00:31.453Z,-0.55
2023-01-21T03:03:41.162Z,-0.52
2023-01-21T03:06:18.739Z,-0.46
2023-01-21T03:08:51.911Z,-0.45
2023-01-21T03:11:19.642Z,-0.46
2023-01-21T03:14:48.151Z,-0.48
2023-01-21T03:17:20.281Z,-0.45
2023-01-21T03:20:15.986Z,-0.44
2023-01-21T03:22:42.776Z,-0.43
2023-01-21T03:25:09.353Z,-0.43
2023-01-21T03:27:37.326Z,-0.43
2023-01-21T03:30:08.407Z,-0.41
2023-01-21T03:32:36.284Z,-0.40
2023-01-21T03:35:03.867Z,-0.40
2023-01-21T03:38:16.645Z,-0.40
2023-01-21T03:40:56.142Z,-0.40
2023-01-21T03:43:22.517Z,-0.38
2023-01-21T03:46:03.531Z,-0.39
2023-01-21T03:48:36.396Z,-0.35
2023-01-21T03:51:09.274Z,-0.32
2023-01-21T03:53:35.885Z,-0.33
2023-01-21T03:56:02.239Z,-0.31
2023-01-21T03:58:28.618Z,-0.30
2023-01-21T04:00:55.037Z,-0.27
2023-01-21T04:03:22.364Z,-0.28
2023-01-21T04:05:48.745Z,-0.28
2023-01-21T04:08:15.089Z,-0.27
2023-01-21T04:10:41.667Z,-0.27
2023-01-21T04:13:08.063Z,-0.28
2023-01-21T04:15:34.426Z,-0.26
2023-01-21T04:18:00.972Z,-0.25
2023-01-21T04:20:27.350Z,-0.24
2023-01-21T04:22:53.799Z,-0.21
2023-01-21T04:25:20.538Z,-0.18
2023-01-21T04:27:46.940Z,-0.19
2023-01-21T04:30:13.578Z,-0.18
2023-01-21T04:32:39.977Z,-0.20
2023-01-21T04:35:06.850Z,-0.21
2023-01-21T04:37:33.235Z,-0.21
2023-01-21T04:39:59.609Z,-0.22
2023-01-21T04:42:26.212Z,-0.22
2023-01-21T04:44:52.567Z,-0.22
2023-01-21T04:47:18.903Z,-0.24
2023-01-21T04:49:45.286Z,-0.25
2023-01-21T04:52:11.707Z,-0.24
2023-01-21T04:54:38.069Z,-0.23
2023-01-21T04:57:04.456Z,-0.20
2023-01-21T04:59:30.897Z,-0.19
2023-01-21T05:01:57.345Z,-0.20
2023-01-21T05:04:23.736Z,-0.24
2023-01-21T05:06:50.127Z,-0.27
2023-01-21T05:09:16.712Z,-0.35
2023-01-21T05:11:43.111Z,-0.45
2023-01-21T05:14:09.467Z,-0.51
2023-01-21T05:16:35.867Z,-0.53
2023-01-21T05:19:02.225Z,-0.48
2023-01-21T05:21:28.567Z,-0.44
2023-01-21T05:23:55.434Z,-0.41
2023-01-21T05:26:21.779Z,-0.39
2023-01-21T05:28:48.169Z,-0.42
2023-01-21T05:31:14.656Z,-0.39
2023-01-21T05:33:43.869Z,-0.48
2023-01-21T05:36:10.244Z,-0.51
2023-01-21T05:38:36.780Z,-0.49
2023-01-21T05:41:03.325Z,-0.44
2023-01-21T05:43:29.813Z,-0.48
2023-01-21T05:45:56.487Z,-0.53
2023-01-21T05:48:23.202Z,-0.51
2023-01-21T05:50:49.929Z,-0.57
2023-01-21T05:53:16.951Z,-0.63
2023-01-21T05:55:43.596Z,-0.61
2023-01-21T05:58:09.981Z,-0.56
2023-01-21T06:00:36.352Z,-0.56
2023-01-21T06:03:03.103Z,-0.53
2023-01-21T06:05:29.986Z,-0.50
2023-01-21T06:07:56.344Z,-0.47
2023-01-21T06:10:22.825Z,-0.47
2023-01-21T06:12:52.346Z,-0.55
2023-01-21T06:15:19.139Z,-0.53
2023-01-21T06:17:47.397Z,-0.52
2023-01-21T06:20:14.130Z,-0.48
2023-01-21T06:22:40.793Z,-0.48
2023-01-21T06:25:07.375Z,-0.48
2023-01-21T06:27:34.381Z,-0.51
2023-01-21T06:30:00.741Z,-0.54
2023-01-21T06:32:27.133Z,-0.53
2023-01-21T06:34:53.508Z,-0.54
2023-01-21T06:37:19.901Z,-0.55
2023-01-21T06:39:46.233Z,-0.54
2023-01-21T06:42:12.811Z,-0.50
2023-01-21T06:44:39.212Z,-0.50
2023-01-21T06:47:05.724Z,-0.51
2023-01-21T06:49:32.102Z,-0.52
2023-01-21T06:51:58.460Z,-0.51
2023-01-21T06:54:24.888Z,-0.50
2023-01-21T06:56:51.223Z,-0.47
2023-01-21T06:59:17.591Z,-0.41
2023-01-21T07:01:44.254Z,-0.39
2023-01-21T07:04:10.788Z,-0.39
2023-01-21T07:06:37.500Z,-0.36
2023-01-21T07:09:04.732Z,-0.33
2023-01-21T07:11:31.440Z,-0.34
2023-01-21T07:13:58.193Z,-0.35
2023-01-21T07:16:24.681Z,-0.28
2023-01-21T07:18:51.106Z,-0.28
2023-01-21T07:21:17.491Z,-0.27
2023-01-21T07:23:43.951Z,-0.26
2023-01-21T07:26:10.407Z,-0.25
2023-01-21T07:28:36.750Z,-0.25
2023-01-21T07:31:03.838Z,-0.25
2023-01-21T07:33:30.323Z,-0.23
2023-01-21T07:35:56.905Z,-0.25
2023-01-21T07:38:23.281Z,-0.23
2023-01-21T07:40:50.417Z,-0.28
2023-01-21T07:43:16.975Z,-0.27
2023-01-21T07:45:43.551Z,-0.27
2023-01-21T07:48:10.555Z,-0.26
2023-01-21T07:50:37.487Z,-0.29
2023-01-21T07:53:04.658Z,-0.28
2023-01-21T07:55:31.086Z,-0.26
2023-01-21T07:57:57.697Z,-0.25
2023-01-21T08:00:27.004Z,-0.27
2023-01-21T08:02:54.997Z,-0.23
2023-01-21T08:05:22.254Z,-0.23
2023-01-21T08:07:48.631Z,-0.26
2023-01-21T08:10:15.754Z,-0.20
2023-01-21T08:12:42.253Z,-0.19
2023-01-21T08:15:09.319Z,-0.16
2023-01-21T08:17:39.656Z,-0.14
2023-01-21T08:20:07.331Z,-0.14
2023-01-21T08:22:33.701Z,-0.11
2023-01-21T08:25:00.135Z,-0.10
2023-01-21T08:27:26.494Z,-0.09
2023-01-21T08:29:52.873Z,-0.08
2023-01-21T08:32:19.652Z,-0.07
2023-01-21T08:34:46.030Z,-0.07
2023-01-21T08:37:12.393Z,-0.06
2023-01-21T08:39:38.782Z,-0.02
2023-01-21T08:42:05.182Z,-0.01
2023-01-21T08:44:31.553Z,-0.05
2023-01-21T08:46:57.934Z,-0.08
2023-01-21T08:49:24.446Z,-0.07
2023-01-21T08:51:51.033Z,-0.03
2023-01-21T08:54:17.622Z,-0.06
2023-01-21T08:56:43.959Z,-0.05
2023-01-21T08:59:10.939Z,-0.06
2023-01-21T09:01:40.841Z,-0.02
2023-01-21T09:04:07.461Z,0.04
2023-01-21T09:06:33.841Z,0.04
2023-01-21T09:09:00.237Z,0.00
2023-01-21T09:11:27.006Z,0.03
2023-01-21T09:13:53.344Z,0.05
2023-01-21T09:16:22.312Z,0.05
2023-01-21T09:18:49.067Z,0.06
2023-01-21T09:21:16.002Z,0.00
2023-01-21T09:23:42.437Z,0.04
2023-01-21T09:26:08.811Z,0.12
2023-01-21T09:28:38.580Z,0.13
2023-01-21T09:31:15.343Z,0.16
2023-01-21T09:33:43.310Z,0.19
2023-01-21T09:36:12.972Z,0.21
2023-01-21T09:38:41.885Z,0.22
2023-01-21T09:41:36.040Z,0.27
2023-01-21T09:44:11.467Z,0.37
2023-01-21T09:47:06.092Z,0.44
2023-01-21T09:49:41.388Z,0.48
2023-01-21T09:52:27.420Z,0.50
2023-01-21T09:54:54.383Z,0.51
2023-01-21T09:57:36.468Z,0.55
2023-01-21T10:00:24.831Z,0.54
2023-01-21T10:03:12.833Z,0.60
2023-01-21T10:05:43.237Z,0.62
2023-01-21T10:08:37.554Z,0.63
2023-01-21T10:11:22.311Z,0.63
2023-01-21T10:14:26.071Z,0.65
2023-01-21T10:17:10.787Z,0.68
2023-01-21T10:19:40.750Z,0.70
2023-01-21T10:22:12.842Z,0.76
2023-01-21T10:24:45.166Z,0.81
2023-01-21T10:27:21.676Z,0.85
2023-01-21T10:30:02.326Z,0.87
2023-01-21T10:32:28.854Z,0.93
2023-01-21T10:34:56.239Z,1.00
2023-01-21T10:37:43.396Z,1.03
2023-01-21T10:40:44.274Z,1.06
2023-01-21T10:43:20.014Z,1.13
2023-01-21T10:45:56.002Z,1.16
2023-01-21T10:48:37.407Z,1.22
2023-01-21T10:51:23.728Z,1.23
2023-01-21T10:53:56.540Z,1.32
2023-01-21T10:56:29.601Z,1.35
2023-01-21T10:58:58.009Z,1.41
2023-01-21T11:01:33.490Z,1.46
2023-01-21T11:04:03.700Z,1.45
2023-01-21T11:06:30.922Z,1.45
2023-01-21T11:08:59.980Z,1.50
2023-01-21T11:11:28.368Z,1.56
2023-01-21T11:13:55.402Z,1.58
2023-01-21T11:16:43.315Z,1.64
2023-01-21T11:19:13.027Z,1.62
2023-01-21T11:21:40.084Z,1.67
2023-01-21T11:24:23.613Z,1.66
2023-01-21T11:26:56.855Z,1.66
2023-01-21T11:29:23.984Z,1.70
2023-01-21T11:32:05.230Z,1.77
2023-01-21T11:34:31.669Z,1.79
2023-01-21T11:37:02.718Z,1.82
2023-01-21T11:39:38.967Z,1.85
2023-01-21T11:42:15.752Z,1.86
2023-01-21T11:45:06.081Z,1.91
2023-01-21T11:47:47.832Z,2.01
2023-01-21T11:50:16.193Z,2.04
2023-01-21T11:52:42.796Z,2.12
2023-01-21T11:55:23.834Z,2.18
2023-01-21T11:57:52.182Z,2.20
2023-01-21T12:00:21.716Z,2.23
2023-01-21T12:02:51.527Z,2.27
2023-01-21T12:05:31.496Z,2.27
2023-01-21T12:07:58.076Z,2.32
2023-01-21T12:10:27.847Z,2.35
2023-01-21T12:13:00.463Z,2.38
2023-01-21T12:15:45.214Z,2.44
2023-01-21T12:18:29.510Z,2.44
2023-01-21T12:21:04.205Z,2.46
2023-01-21T12:23:52.116Z,2.54
2023-01-21T12:26:57.095Z,2.57
2023-01-21T12:29:32.327Z,2.67
2023-01-21T12:32:01.694Z,2.69
2023-01-21T12:34:30.955Z,2.69
2023-01-21T12:37:00.522Z,2.76
2023-01-21T12:39:32.488Z,2.72
2023-01-21T12:42:11.631Z,2.76
2023-01-21T12:44:51.241Z,2.73
2023-01-21T12:47:36.571Z,2.72
2023-01-21T12:50:21.532Z,2.71
2023-01-21T12:53:06.963Z,2.72
2023-01-21T12:55:52.164Z,2.68
2023-01-21T12:58:19.264Z,2.66
2023-01-21T13:00:46.576Z,2.65
2023-01-21T13:03:25.813Z,2.62
2023-01-21T13:06:11.803Z,2.59
2023-01-21T13:08:57.162Z,2.59
2023-01-21T13:11:32.548Z,2.62
2023-01-21T13:14:08.296Z,2.57
2023-01-21T13:16:55.609Z,2.56
2023-01-21T13:19:22.083Z,2.59
2023-01-21T13:21:53.484Z,2.59
2023-01-21T13:24:56.118Z,2.64
2023-01-21T13:27:26.395Z,2.62
2023-01-21T13:29:55.688Z,2.61
2023-01-21T13:32:42.911Z,2.60
2023-01-21T13:35:47.045Z,2.61
2023-01-21T13:38:54.394Z,2.66
2023-01-21T13:41:29.762Z,2.70
2023-01-21T13:44:08.611Z,2.65
2023-01-21T13:46:47.113Z,2.62
2023-01-21T13:49:31.783Z,2.69
2023-01-21T13:52:04.863Z,2.70
2023-01-21T13:54:53.230Z,2.72
2023-01-21T13:57:28.659Z,2.71
2023-01-21T14:00:01.253Z,2.68
2023-01-21T14:02:31.631Z,2.66
2023-01-21T14:05:11.235Z,2.66
2023-01-21T14:08:08.523Z,2.64
2023-01-21T14:10:41.621Z,2.61
2023-01-21T14:13:26.811Z,2.61
2023-01-21T14:16:27.329Z,2.58
2023-01-21T14:19:32.233Z,2.59
2023-01-21T14:22:10.507Z,2.55
2023-01-21T14:24:59.411Z,2.55
2023-01-21T14:28:07.532Z,2.53
2023-01-21T14:31:09.252Z,2.50
2023-01-21T14:33:44.141Z,2.50
2023-01-21T14:36:15.978Z,2.49
2023-01-21T14:38:57.914Z,2.52
2023-01-21T14:41:24.270Z,2.48
2023-01-21T14:43:51.952Z,2.47
2023-01-21T14:46:24.421Z,2.45
2023-01-21T14:49:04.121Z,2.41
2023-01-21T14:51:31.323Z,2.40
2023-01-21T14:54:19.667Z,2.35
2023-01-21T14:57:10.260Z,2.33
2023-01-21T14:59:46.016Z,2.33
2023-01-21T15:02:34.532Z,2.31
2023-01-21T15:05:09.977Z,2.32
2023-01-21T15:07:39.214Z,2.30
2023-01-21T15:10:19.915Z,2.25
2023-01-21T15:12:51.213Z,2.19
2023-01-21T15:15:34.395Z,2.16
2023-01-21T15:18:20.634Z,2.17
2023-01-21T15:20:49.446Z,2.14
2023-01-21T15:23:29.035Z,2.15
2023-01-21T15:26:31.954Z,2.12
2023-01-21T15:29:34.030Z,2.12
2023-01-21T15:32:22.196Z,2.08
2023-01-21T15:34:50.974Z,2.06
2023-01-21T15:37:22.374Z,2.04
2023-01-21T15:39:52.387Z,2.03
2023-01-21T15:42:49.582Z,2.02
2023-01-21T15:45:28.669Z,2.03
2023-01-21T15:47:55.029Z,2.03
2023-01-21T15:50:39.832Z,2.02
2023-01-21T15:53:34.663Z,2.02
2023-01-21T15:56:22.980Z,2.05
2023-01-21T15:59:26.876Z,2.05
2023-01-21T16:02:14.973Z,2.05
2023-01-21T16:05:07.268Z,2.06
2023-01-21T16:08:12.841Z,2.03
2023-01-21T16:10:52.427Z,2.03
2023-01-21T16:13:23.519Z,2.07
2023-01-21T16:15:53.588Z,2.07
2023-01-21T16:18:32.908Z,2.08
2023-01-21T16:20:59.618Z,2.06
2023-01-21T16:23:26.847Z,2.02
2023-01-21T16:25:53.297Z,1.99
2023-01-21T16:28:20.214Z,1.95
2023-01-21T16:30:57.517Z,1.93
2023-01-21T16:33:24.139Z,1.92
2023-01-21T16:35:56.166Z,1.92
2023-01-21T16:38:27.529Z,1.95
2023-01-21T16:41:18.898Z,1.95
2023-01-21T16:43:45.260Z,1.96
2023-01-21T16:46:12.734Z,1.98
2023-01-21T16:48:39.091Z,1.97
2023-01-21T16:51:05.721Z,2.00
2023-01-21T16:53:32.151Z,2.02
2023-01-21T16:55:59.204Z,2.03
2023-01-21T16:58:26.527Z,2.03
2023-01-21T17:01:01.806Z,2.03
2023-01-21T17:03:28.712Z,2.05
2023-01-21T17:05:57.073Z,2.05
2023-01-21T17:08:23.452Z,2.08
2023-01-21T17:11:09.046Z,2.08
2023-01-21T17:13:35.658Z,2.11
2023-01-21T17:16:02.142Z,2.13
2023-01-21T17:18:37.295Z,2.14
2023-01-21T17:21:08.699Z,2.17
2023-01-21T17:23:35.022Z,2.21
2023-01-21T17:26:06.711Z,2.23
2023-01-21T17:28:46.599Z,2.25
2023-01-21T17:31:16.080Z,2.25
2023-01-21T17:33:43.007Z,2.27
2023-01-21T17:36:14.229Z,2.27
2023-01-21T17:38:45.039Z,2.29
2023-01-21T17:41:25.035Z,2.28
2023-01-21T17:43:52.120Z,2.30
2023-01-21T17:46:22.898Z,2.30
2023-01-21T17:48:50.969Z,2.29
2023-01-21T17:51:19.624Z,2.29
2023-01-21T17:54:05.593Z,2.29
2023-01-21T17:56:38.516Z,2.32
2023-01-21T17:59:34.416Z,2.31
2023-01-21T18:02:18.965Z,2.30
2023-01-21T18:04:45.382Z,2.29
2023-01-21T18:07:16.126Z,2.27
2023-01-21T18:09:42.473Z,2.26
2023-01-21T18:12:09.366Z,2.23
2023-01-21T18:14:35.715Z,2.22
2023-01-21T18:17:02.062Z,2.21
2023-01-21T18:19:31.365Z,2.19
2023-01-21T18:21:58.341Z,2.21
2023-01-21T18:24:25.467Z,2.21
2023-01-21T18:26:52.213Z,2.23
2023-01-21T18:29:19.592Z,2.20
2023-01-21T18:31:47.984Z,2.21
2023-01-21T18:34:14.635Z,2.22
2023-01-21T18:36:40.998Z,2.23
2023-01-21T18:39:14.576Z,2.22
2023-01-21T18:41:41.012Z,2.21
2023-01-21T18:44:07.823Z,2.22
2023-01-21T18:46:34.326Z,2.22
2023-01-21T18:49:05.663Z,2.18
2023-01-21T18:51:32.240Z,2.18
2023-01-21T18:53:58.631Z,2.19
2023-01-21T18:56:25.205Z,2.20
2023-01-21T18:58:51.555Z,2.20
2023-01-21T19:01:23.594Z,2.20
2023-01-21T19:03:52.472Z,2.19
2023-01-21T19:06:19.133Z,2.20
2023-01-21T19:08:46.041Z,2.19
2023-01-21T19:11:12.919Z,2.18
2023-01-21T19:13:39.263Z,2.19
2023-01-21T19:16:06.565Z,2.18
2023-01-21T19:18:32.972Z,2.18
2023-01-21T19:20:59.406Z,2.17
2023-01-21T19:23:25.835Z,2.18
2023-01-21T19:25:54.427Z,2.19
2023-01-21T19:28:20.866Z,2.16
2023-01-21T19:30:49.549Z,2.18
2023-01-21T19:33:15.992Z,2.18
2023-01-21T19:35:43.678Z,2.17
2023-01-21T19:38:11.941Z,2.17
2023-01-21T19:40:38.316Z,2.17
2023-01-21T19:43:04.927Z,2.09
2023-01-21T19:45:31.276Z,2.02
2023-01-21T19:47:57.800Z,1.91
2023-01-21T19:50:25.280Z,1.80
2023-01-21T19:52:52.313Z,1.69
2023-01-21T19:55:23.686Z,1.62
2023-01-21T19:57:56.807Z,1.54
2023-01-21T20:00:31.499Z,1.49
2023-01-21T20:02:58.315Z,1.44
2023-01-21T20:05:26.557Z,1.45
2023-01-21T20:07:53.399Z,1.42
2023-01-21T20:10:22.029Z,1.40
2023-01-21T20:12:48.495Z,1.39
2023-01-21T20:15:16.170Z,1.39
2023-01-21T20:17:46.145Z,1.40
2023-01-21T20:20:17.172Z,1.41
2023-01-21T20:22:43.691Z,1.41
2023-01-21T20:25:15.278Z,1.43
2023-01-21T20:27:42.835Z,1.41
2023-01-21T20:30:18.656Z,1.41
2023-01-21T20:32:45.549Z,1.43
2023-01-21T20:35:12.289Z,1.44
2023-01-21T20:37:39.642Z,1.45
2023-01-21T20:40:06.506Z,1.41
2023-01-21T20:42:32.852Z,1.38
2023-01-21T20:44:59.231Z,1.35
2023-01-21T20:47:37.828Z,1.32
2023-01-21T20:50:23.884Z,1.33
2023-01-21T20:52:50.477Z,1.33
2023-01-21T20:55:20.969Z,1.30
2023-01-21T20:57:47.742Z,1.21
2023-01-21T21:00:32.992Z,1.19
2023-01-21T21:02:59.371Z,1.20
2023-01-21T21:05:27.606Z,1.17
2023-01-21T21:07:54.365Z,1.19
2023-01-21T21:10:29.351Z,1.12
2023-01-21T21:12:55.872Z,1.13
2023-01-21T21:15:22.429Z,1.10
2023-01-21T21:17:49.070Z,1.08
2023-01-21T21:20:19.995Z,1.09
2023-01-21T21:22:46.502Z,1.05
2023-01-21T21:25:17.336Z,0.99
2023-01-21T21:27:44.385Z,0.99
2023-01-21T21:30:16.181Z,0.96
2023-01-21T21:32:42.819Z,0.93
2023-01-21T21:35:24.384Z,0.94
2023-01-21T21:37:51.430Z,0.91
2023-01-21T21:40:19.244Z,0.88
2023-01-21T21:43:04.610Z,0.87
2023-01-21T21:45:30.967Z,0.87
2023-01-21T21:48:15.786Z,0.86
2023-01-21T21:50:42.144Z,0.86
2023-01-21T21:53:08.567Z,0.86
2023-01-21T21:55:34.967Z,0.86
2023-01-21T21:58:01.365Z,0.82
2023-01-21T22:00:28.847Z,0.80
2023-01-21T22:03:02.415Z,0.78
2023-01-21T22:05:30.451Z,0.78
2023-01-21T22:07:56.866Z,0.77
2023-01-21T22:10:23.247Z,0.78
2023-01-21T22:12:49.616Z,0.79
2023-01-21T22:15:16.198Z,0.78
2023-01-21T22:17:42.770Z,0.75
2023-01-21T22:20:10.011Z,0.76
2023-01-21T22:22:36.364Z,0.79
2023-01-21T22:25:02.780Z,0.80
2023-01-21T22:27:29.120Z,0.81
2023-01-21T22:29:55.520Z,0.81
2023-01-21T22:32:21.869Z,0.82
2023-01-21T22:34:48.205Z,0.79
2023-01-21T22:37:14.757Z,0.80
2023-01-21T22:39:41.109Z,0.79
2023-01-21T22:42:07.669Z,0.78
2023-01-21T22:44:34.279Z,0.80
2023-01-21T22:47:00.649Z,0.75
2023-01-21T22:49:27.082Z,0.74
2023-01-21T22:51:55.136Z,0.72
2023-01-21T22:54:21.496Z,0.72
2023-01-21T22:56:52.754Z,0.73
2023-01-21T22:59:19.610Z,0.71
2023-01-21T23:01:46.451Z,0.71
2023-01-21T23:04:12.901Z,0.69
2023-01-21T23:06:39.504Z,0.70
2023-01-21T23:09:09.216Z,0.68
2023-01-21T23:11:37.849Z,0.73
2023-01-21T23:14:04.243Z,0.72
2023-01-21T23:16:30.592Z,0.73
2023-01-21T23:18:57.511Z,0.73
2023-01-21T23:21:23.900Z,0.74
2023-01-21T23:23:50.534Z,0.76
2023-01-21T23:26:19.090Z,0.76
2023-01-21T23:28:45.660Z,0.78
2023-01-21T23:31:16.636Z,0.79
2023-01-21T23:33:43.199Z,0.81
2023-01-21T23:36:12.656Z,0.80
2023-01-21T23:38:40.767Z,0.80
2023-01-21T23:41:08.032Z,0.81
2023-01-21T23:43:34.675Z,0.83
2023-01-21T23:46:01.075Z,0.82
2023-01-21T23:48:27.623Z,0.84
2023-01-21T23:50:53.990Z,0.83
2023-01-21T23:53:20.352Z,0.82
2023-01-21T23:55:46.718Z,0.82
2023-01-21T23:58:13.148Z,0.86
